createdAt,value
2023-08-25T00:01:31.630Z,21.00
2023-08-25T00:03:58.506Z,21.00
2023-08-25T00:06:25.344Z,21.10
2023-08-25T00:08:52.169Z,21.10
2023-08-25T00:11:19.020Z,21.10
2023-08-25T00:13:45.838Z,21.10
2023-08-25T00:16:12.626Z,21.10
2023-08-25T00:18:39.357Z,21.10
2023-08-25T00:21:06.111Z,21.10
2023-08-25T00:23:32.908Z,21.20
2023-08-25T00:25:59.760Z,21.20
2023-08-25T00:28:27.142Z,21.20
2023-08-25T00:30:55.881Z,21.20
2023-08-25T00:33:22.769Z,21.20
2023-08-25T00:35:49.904Z,21.30
2023-08-25T00:38:16.773Z,21.30
2023-08-25T00:40:43.604Z,21.30
2023-08-25T00:43:10.452Z,21.30
2023-08-25T00:45:41.017Z,21.30
2023-08-25T00:48:08.998Z,21.40
2023-08-25T00:50:36.003Z,21.40
2023-08-25T00:53:04.896Z,21.50
2023-08-25T00:55:32.188Z,21.60
2023-08-25T00:58:00.114Z,21.60
2023-08-25T01:00:27.211Z,21.70
2023-08-25T01:02:55.206Z,21.70
2023-08-25T01:05:22.080Z,21.70
2023-08-25T01:07:49.753Z,21.60
2023-08-25T01:10:18.370Z,21.60
2023-08-25T01:12:53.707Z,21.50
2023-08-25T01:15:29.579Z,21.60
2023-08-25T01:18:04.228Z,21.50
2023-08-25T01:20:31.779Z,21.50
2023-08-25T01:23:16.198Z,21.50
2023-08-25T01:25:43.408Z,21.40
2023-08-25T01:28:10.177Z,21.30
2023-08-25T01:30:37.706Z,21.30
2023-08-25T01:33:05.078Z,21.20
2023-08-25T01:35:44.283Z,21.10
2023-08-25T01:38:25.911Z,21.00
2023-08-25T01:41:13.872Z,20.90
2023-08-25T01:43:45.755Z,20.80
2023-08-25T01:46:15.197Z,20.70
2023-08-25T01:48:44.318Z,20.60
2023-08-25T01:51:12.634Z,20.50
2023-08-25T01:53:39.510Z,20.40
2023-08-25T01:56:06.215Z,20.30
2023-08-25T01:58:33.079Z,20.20
2023-08-25T02:00:59.826Z,20.10
2023-08-25T02:03:26.580Z,20.10
2023-08-25T02:05:53.445Z,20.00
2023-08-25T02:08:20.350Z,19.90
2023-08-25T02:10:47.205Z,19.90
2023-08-25T02:13:14.359Z,19.80
2023-08-25T02:15:49.893Z,19.80
2023-08-25T02:18:16.694Z,19.70
2023-08-25T02:20:43.644Z,19.70
2023-08-25T02:23:10.649Z,19.60
2023-08-25T02:25:37.448Z,19.50
2023-08-25T02:28:04.478Z,19.50
2023-08-25T02:30:31.893Z,19.50
2023-08-25T02:32:58.881Z,19.40
2023-08-25T02:35:25.733Z,19.30
2023-08-25T02:38:05.391Z,19.30
2023-08-25T02:40:32.765Z,19.30
2023-08-25T02:43:05.743Z,19.20
2023-08-25T02:45:33.741Z,19.20
2023-08-25T02:48:00.698Z,19.20
2023-08-25T02:50:28.208Z,19.30
2023-08-25T02:52:54.984Z,19.30
2023-08-25T02:55:23.317Z,19.30
2023-08-25T02:57:51.466Z,19.30
2023-08-25T03:00:24.548Z,19.30
2023-08-25T03:02:52.308Z,19.40
2023-08-25T03:05:19.735Z,19.40
2023-08-25T03:07:46.870Z,19.40
2023-08-25T03:10:13.680Z,19.30
2023-08-25T03:12:41.031Z,19.30
2023-08-25T03:15:08.702Z,19.30
2023-08-25T03:17:35.838Z,19.20
2023-08-25T03:20:04.170Z,19.20
2023-08-25T03:22:31.119Z,19.20
2023-08-25T03:24:57.928Z,19.10
2023-08-25T03:27:24.664Z,19.10
2023-08-25T03:29:51.528Z,19.10
2023-08-25T03:32:18.279Z,19.00
2023-08-25T03:34:44.991Z,19.00
2023-08-25T03:37:12.890Z,19.00
2023-08-25T03:39:39.863Z,18.90
2023-08-25T03:42:06.961Z,18.90
2023-08-25T03:44:33.738Z,18.90
2023-08-25T03:47:00.526Z,18.90
2023-08-25T03:49:29.632Z,18.90
2023-08-25T03:51:59.515Z,18.90
2023-08-25T03:54:29.039Z,18.80
2023-08-25T03:56:55.806Z,18.80
2023-08-25T03:59:22.575Z,18.80
2023-08-25T04:01:49.433Z,18.70
2023-08-25T04:04:16.232Z,18.80
2023-08-25T04:06:43.104Z,18.70
2023-08-25T04:09:09.873Z,18.70
2023-08-25T04:11:37.797Z,18.70
2023-08-25T04:14:04.657Z,18.60
2023-08-25T04:16:31.526Z,18.60
2023-08-25T04:18:58.751Z,18.60
2023-08-25T04:21:26.363Z,18.60
2023-08-25T04:23:53.204Z,18.50
2023-08-25T04:26:20.000Z,18.50
2023-08-25T04:28:46.739Z,18.50
2023-08-25T04:31:13.555Z,18.40
2023-08-25T04:33:42.611Z,18.40
2023-08-25T04:36:09.818Z,18.40
2023-08-25T04:38:36.601Z,18.40
2023-08-25T04:41:03.365Z,18.40
2023-08-25T04:43:30.134Z,18.40
2023-08-25T04:45:56.917Z,18.40
2023-08-25T04:48:24.037Z,18.50
2023-08-25T04:50:50.893Z,18.60
2023-08-25T04:53:17.746Z,18.60
2023-08-25T04:55:44.592Z,18.60
2023-08-25T04:58:11.861Z,18.70
2023-08-25T05:00:38.795Z,18.80
2023-08-25T05:03:06.060Z,18.80
2023-08-25T05:05:33.360Z,18.80
2023-08-25T05:08:00.179Z,18.90
2023-08-25T05:10:27.065Z,18.90
2023-08-25T05:12:53.898Z,19.00
2023-08-25T05:15:20.662Z,19.10
2023-08-25T05:17:47.486Z,19.10
2023-08-25T05:20:22.012Z,19.10
2023-08-25T05:22:52.015Z,19.20
2023-08-25T05:25:21.653Z,19.40
2023-08-25T05:27:48.806Z,19.50
2023-08-25T05:30:17.686Z,19.60
2023-08-25T05:32:44.633Z,19.70
2023-08-25T05:35:12.265Z,19.70
2023-08-25T05:37:39.141Z,19.80
2023-08-25T05:40:08.162Z,20.00
2023-08-25T05:42:36.924Z,20.10
2023-08-25T05:45:04.741Z,20.30
2023-08-25T05:47:31.645Z,20.50
2023-08-25T05:49:58.608Z,20.80
2023-08-25T05:52:25.613Z,21.10
2023-08-25T05:54:52.534Z,21.40
2023-08-25T05:57:19.486Z,21.60
2023-08-25T05:59:46.223Z,21.90
2023-08-25T06:02:14.433Z,22.00
2023-08-25T06:04:41.295Z,22.20
2023-08-25T06:07:08.174Z,22.40
2023-08-25T06:09:34.979Z,22.50
2023-08-25T06:12:02.233Z,22.50
2023-08-25T06:14:31.364Z,22.50
2023-08-25T06:17:02.181Z,22.60
2023-08-25T06:19:29.324Z,22.50
2023-08-25T06:21:56.114Z,22.50
2023-08-25T06:24:22.927Z,22.60
2023-08-25T06:26:49.664Z,22.70
2023-08-25T06:29:16.378Z,22.80
2023-08-25T06:31:43.224Z,23.00
2023-08-25T06:34:10.224Z,23.20
2023-08-25T06:36:37.013Z,23.50
2023-08-25T06:39:04.887Z,23.70
2023-08-25T06:41:31.989Z,24.10
2023-08-25T06:44:00.304Z,24.30
2023-08-25T06:46:27.409Z,24.60
2023-08-25T06:48:54.264Z,24.90
2023-08-25T06:51:21.094Z,25.10
2023-08-25T06:53:47.907Z,25.30
2023-08-25T06:56:14.828Z,25.50
2023-08-25T06:58:41.653Z,25.70
2023-08-25T07:01:08.637Z,26.10
2023-08-25T07:03:36.264Z,26.30
2023-08-25T07:06:04.293Z,26.60
2023-08-25T07:08:31.961Z,26.90
2023-08-25T07:10:58.798Z,27.10
2023-08-25T07:13:25.576Z,27.20
2023-08-25T07:15:52.651Z,27.40
2023-08-25T07:18:19.600Z,27.50
2023-08-25T07:20:46.416Z,27.70
2023-08-25T07:23:13.202Z,28.00
2023-08-25T07:25:44.626Z,28.30
2023-08-25T07:28:12.242Z,28.20
2023-08-25T07:30:39.936Z,28.30
2023-08-25T07:33:09.572Z,28.40
2023-08-25T07:35:37.143Z,28.50
2023-08-25T07:38:05.173Z,28.70
2023-08-25T07:40:32.878Z,28.70
2023-08-25T07:43:04.406Z,28.80
2023-08-25T07:45:32.425Z,29.00
2023-08-25T07:48:00.954Z,29.20
2023-08-25T07:50:31.771Z,29.30
2023-08-25T07:52:59.728Z,29.60
2023-08-25T07:55:27.274Z,29.90
2023-08-25T07:57:54.470Z,30.00
2023-08-25T08:00:22.496Z,29.80
2023-08-25T08:02:50.812Z,29.50
2023-08-25T08:05:19.418Z,29.20
2023-08-25T08:07:49.462Z,29.10
2023-08-25T08:10:18.491Z,28.90
2023-08-25T08:12:46.448Z,29.10
2023-08-25T08:15:13.738Z,29.10
2023-08-25T08:17:41.414Z,29.40
2023-08-25T08:20:13.685Z,29.70
2023-08-25T08:22:42.308Z,30.00
2023-08-25T08:25:11.865Z,29.70
2023-08-25T08:27:40.638Z,29.40
2023-08-25T08:30:08.437Z,29.30
2023-08-25T08:32:39.379Z,29.30
2023-08-25T08:35:09.818Z,29.10
2023-08-25T08:37:37.365Z,29.00
2023-08-25T08:40:09.539Z,28.70
2023-08-25T08:42:43.254Z,28.40
2023-08-25T08:45:12.405Z,28.30
2023-08-25T08:47:49.024Z,28.20
2023-08-25T08:50:15.977Z,28.10
2023-08-25T08:52:42.788Z,27.70
2023-08-25T08:55:10.431Z,27.30
2023-08-25T08:57:37.788Z,27.10
2023-08-25T09:00:09.360Z,26.80
2023-08-25T09:02:37.006Z,26.50
2023-08-25T09:05:04.380Z,26.30
2023-08-25T09:07:34.051Z,26.10
2023-08-25T09:10:02.345Z,25.80
2023-08-25T09:12:30.424Z,25.50
2023-08-25T09:14:57.405Z,25.30
2023-08-25T09:17:24.354Z,25.20
2023-08-25T09:19:51.201Z,25.10
2023-08-25T09:22:19.589Z,25.00
2023-08-25T09:24:46.500Z,24.90
2023-08-25T09:27:27.905Z,24.90
2023-08-25T09:30:05.252Z,24.70
2023-08-25T09:32:32.644Z,24.70
2023-08-25T09:35:12.697Z,24.60
2023-08-25T09:37:43.810Z,24.70
2023-08-25T09:40:16.189Z,24.70
2023-08-25T09:42:43.070Z,24.70
2023-08-25T09:45:11.793Z,24.70
2023-08-25T09:47:44.632Z,24.60
2023-08-25T09:50:19.089Z,24.50
2023-08-25T09:52:47.848Z,24.50
2023-08-25T09:55:16.114Z,24.40
2023-08-25T09:57:47.643Z,24.20
2023-08-25T10:00:15.431Z,24.20
2023-08-25T10:02:43.467Z,24.10
2023-08-25T10:05:11.673Z,24.10
2023-08-25T10:07:39.020Z,24.00
2023-08-25T10:10:06.281Z,24.00
2023-08-25T10:12:35.873Z,24.00
2023-08-25T10:15:04.660Z,23.90
2023-08-25T10:17:32.263Z,23.90
2023-08-25T10:20:05.683Z,23.80
2023-08-25T10:22:35.652Z,23.80
2023-08-25T10:25:06.538Z,23.70
2023-08-25T10:27:33.898Z,23.60
2023-08-25T10:30:02.035Z,23.40
2023-08-25T10:32:59.413Z,23.30
2023-08-25T10:35:46.136Z,23.20
2023-08-25T10:38:19.065Z,23.00
2023-08-25T10:40:56.843Z,22.90
2023-08-25T10:43:34.685Z,22.70
2023-08-25T10:46:11.426Z,22.60
2023-08-25T10:48:39.959Z,22.30
2023-08-25T10:51:10.173Z,22.30
2023-08-25T10:53:46.212Z,22.20
2023-08-25T10:56:23.631Z,22.00
2023-08-25T10:59:05.544Z,21.90
2023-08-25T11:01:38.689Z,21.80
2023-08-25T11:04:26.110Z,21.70
2023-08-25T11:06:55.424Z,21.70
2023-08-25T11:09:22.185Z,21.60
2023-08-25T11:11:56.939Z,21.60
2023-08-25T11:14:32.409Z,21.50
2023-08-25T11:17:01.604Z,21.50
2023-08-25T11:19:30.123Z,21.40
2023-08-25T11:22:05.424Z,21.30
2023-08-25T11:24:33.285Z,21.30
2023-08-25T11:27:07.949Z,21.30
2023-08-25T11:29:34.900Z,21.30
2023-08-25T11:32:03.392Z,21.40
2023-08-25T11:34:31.757Z,21.50
2023-08-25T11:36:59.401Z,21.50
2023-08-25T11:39:26.325Z,21.60
2023-08-25T11:41:57.160Z,21.60
2023-08-25T11:44:25.229Z,21.70
2023-08-25T11:47:00.090Z,21.80
2023-08-25T11:49:29.620Z,21.80
2023-08-25T11:51:56.467Z,22.00
2023-08-25T11:54:23.386Z,22.00
2023-08-25T11:56:52.332Z,21.90
2023-08-25T11:59:23.758Z,21.80
2023-08-25T12:01:51.280Z,21.80
2023-08-25T12:04:25.863Z,21.70
2023-08-25T12:06:54.648Z,21.60
2023-08-25T12:09:23.508Z,21.50
2023-08-25T12:11:56.751Z,21.40
2023-08-25T12:14:32.596Z,21.30
2023-08-25T12:16:59.619Z,21.20
2023-08-25T12:19:30.043Z,21.10
2023-08-25T12:21:58.360Z,21.10
2023-08-25T12:24:25.230Z,21.00
2023-08-25T12:26:53.463Z,21.00
2023-08-25T12:29:23.303Z,21.00
2023-08-25T12:31:50.117Z,20.90
2023-08-25T12:34:16.958Z,20.90
2023-08-25T12:36:43.917Z,20.90
2023-08-25T12:39:10.828Z,20.90
2023-08-25T12:41:37.767Z,21.00
2023-08-25T12:44:05.383Z,20.90
2023-08-25T12:46:32.505Z,20.90
2023-08-25T12:48:59.849Z,20.90
2023-08-25T12:51:28.056Z,20.80
2023-08-25T12:53:57.606Z,20.80
2023-08-25T12:56:25.069Z,20.80
2023-08-25T12:58:55.220Z,20.80
2023-08-25T13:01:23.282Z,20.90
2023-08-25T13:03:50.121Z,21.10
2023-08-25T13:06:17.321Z,21.10
2023-08-25T13:08:45.677Z,21.20
2023-08-25T13:11:13.577Z,21.20
2023-08-25T13:13:41.400Z,21.30
2023-08-25T13:16:11.661Z,21.40
2023-08-25T13:18:38.814Z,21.60
2023-08-25T13:21:05.656Z,21.60
2023-08-25T13:23:41.116Z,21.80
2023-08-25T13:26:14.753Z,21.90
2023-08-25T13:28:41.616Z,22.00
2023-08-25T13:31:08.678Z,22.00
2023-08-25T13:33:35.969Z,21.90
2023-08-25T13:36:06.219Z,21.90
2023-08-25T13:38:33.124Z,21.90
2023-08-25T13:41:00.057Z,21.90
2023-08-25T13:43:26.906Z,21.90
2023-08-25T13:45:55.875Z,22.00
2023-08-25T13:48:22.711Z,22.10
2023-08-25T13:50:50.782Z,22.20
2023-08-25T13:53:17.565Z,22.30
2023-08-25T13:55:45.134Z,22.40
2023-08-25T13:58:12.509Z,22.20
2023-08-25T14:00:39.970Z,22.10
2023-08-25T14:03:07.069Z,22.00
2023-08-25T14:05:34.054Z,22.00
2023-08-25T14:08:01.211Z,22.10
2023-08-25T14:10:30.302Z,22.20
2023-08-25T14:12:57.363Z,22.40
2023-08-25T14:15:24.504Z,22.50
2023-08-25T14:17:54.143Z,22.60
2023-08-25T14:20:24.767Z,22.70
2023-08-25T14:22:51.550Z,22.60
2023-08-25T14:25:18.744Z,22.70
2023-08-25T14:27:45.591Z,22.80
2023-08-25T14:30:12.763Z,22.70
2023-08-25T14:32:39.718Z,22.60
2023-08-25T14:35:06.993Z,22.50
2023-08-25T14:37:34.471Z,22.50
2023-08-25T14:40:01.652Z,22.70
2023-08-25T14:42:28.595Z,22.80
2023-08-25T14:44:55.726Z,23.00
2023-08-25T14:47:22.768Z,23.10
2023-08-25T14:49:50.288Z,23.20
2023-08-25T14:52:20.450Z,23.40
2023-08-25T14:54:47.678Z,23.60
2023-08-25T14:57:14.671Z,23.80
2023-08-25T14:59:41.876Z,23.80
2023-08-25T15:02:09.079Z,24.00
2023-08-25T15:04:36.922Z,23.90
2023-08-25T15:07:04.249Z,23.80
2023-08-25T15:09:31.033Z,23.80
2023-08-25T15:11:57.920Z,23.80
2023-08-25T15:14:24.931Z,24.00
2023-08-25T15:16:51.920Z,23.90
2023-08-25T15:19:19.143Z,24.00
2023-08-25T15:21:46.158Z,24.00
2023-08-25T15:24:13.008Z,23.90
2023-08-25T15:26:40.455Z,23.80
2023-08-25T15:29:07.277Z,23.80
2023-08-25T15:31:34.782Z,23.70
2023-08-25T15:34:01.946Z,23.60
2023-08-25T15:36:29.053Z,23.40
2023-08-25T15:38:55.856Z,23.20
2023-08-25T15:41:22.836Z,23.10
2023-08-25T15:43:49.682Z,22.90
2023-08-25T15:46:16.744Z,22.90
2023-08-25T15:48:43.526Z,22.80
2023-08-25T15:51:10.565Z,22.80
2023-08-25T15:53:37.515Z,22.70
2023-08-25T15:56:04.738Z,22.70
2023-08-25T15:58:31.731Z,22.80
2023-08-25T16:01:01.010Z,22.90
2023-08-25T16:03:28.740Z,22.90
2023-08-25T16:05:57.674Z,23.00
2023-08-25T16:08:28.456Z,23.10
2023-08-25T16:11:06.581Z,23.00
2023-08-25T16:13:35.992Z,23.10
2023-08-25T16:16:04.665Z,23.10
2023-08-25T16:18:35.112Z,23.00
2023-08-25T16:21:05.966Z,23.00
2023-08-25T16:23:42.931Z,23.00
2023-08-25T16:26:10.321Z,22.90
2023-08-25T16:28:40.616Z,23.00
2023-08-25T16:31:11.763Z,22.90
2023-08-25T16:33:41.394Z,23.00
2023-08-25T16:36:09.227Z,22.90
2023-08-25T16:38:37.616Z,22.80
2023-08-25T16:41:04.527Z,22.80
2023-08-25T16:43:31.576Z,22.70
2023-08-25T16:45:58.503Z,22.60
2023-08-25T16:48:25.397Z,22.60
2023-08-25T16:50:52.343Z,22.70
2023-08-25T16:53:20.361Z,22.70
2023-08-25T16:55:47.573Z,22.80
2023-08-25T16:58:15.288Z,22.80
2023-08-25T17:00:43.526Z,22.80
2023-08-25T17:03:10.838Z,22.80
2023-08-25T17:05:37.734Z,22.80
2023-08-25T17:08:05.786Z,22.70
2023-08-25T17:10:33.510Z,22.80
2023-08-25T17:13:03.899Z,22.70
2023-08-25T17:15:34.558Z,22.60
2023-08-25T17:18:02.300Z,22.50
2023-08-25T17:20:29.447Z,22.50
2023-08-25T17:22:57.002Z,22.40
2023-08-25T17:25:24.375Z,22.40
2023-08-25T17:27:51.253Z,22.30
2023-08-25T17:30:18.241Z,22.30
2023-08-25T17:32:45.179Z,22.30
2023-08-25T17:35:12.110Z,22.30
2023-08-25T17:37:39.091Z,22.20
2023-08-25T17:40:06.698Z,22.20
2023-08-25T17:42:33.527Z,22.20
2023-08-25T17:47:42.041Z,22.10
2023-08-25T17:50:09.100Z,22.10
2023-08-25T17:52:35.956Z,22.10
2023-08-25T17:55:04.168Z,22.10
2023-08-25T17:57:33.201Z,22.10
2023-08-25T18:00:00.459Z,22.10
2023-08-25T18:02:27.381Z,22.10
2023-08-25T18:04:54.215Z,22.10
2023-08-25T18:07:20.999Z,22.00
2023-08-25T18:09:47.861Z,22.00
2023-08-25T18:12:14.872Z,22.00
2023-08-25T18:14:41.725Z,22.00
2023-08-25T18:17:09.340Z,22.00
2023-08-25T18:19:36.135Z,22.00
2023-08-25T18:22:04.637Z,22.00
2023-08-25T18:24:31.509Z,22.00
2023-08-25T18:26:58.504Z,22.00
2023-08-25T18:29:25.910Z,21.90
2023-08-25T18:31:52.860Z,21.90
2023-08-25T18:34:19.706Z,21.90
2023-08-25T18:36:46.649Z,21.90
2023-08-25T18:39:13.508Z,21.90
2023-08-25T18:41:40.389Z,21.90
2023-08-25T18:44:07.234Z,21.90
2023-08-25T18:46:34.918Z,21.90
2023-08-25T18:49:02.607Z,21.90
2023-08-25T18:51:29.717Z,21.90
2023-08-25T18:53:56.715Z,21.80
2023-08-25T18:56:23.573Z,21.80
2023-08-25T18:58:50.397Z,21.80
2023-08-25T19:01:17.585Z,21.80
2023-08-25T19:03:46.700Z,21.80
2023-08-25T19:06:13.677Z,21.80
2023-08-25T19:08:40.484Z,21.70
2023-08-25T19:11:07.682Z,21.70
2023-08-25T19:13:34.572Z,21.60
2023-08-25T19:16:03.618Z,21.60
2023-08-25T19:18:30.861Z,21.60
2023-08-25T19:21:02.463Z,21.60
2023-08-25T19:23:33.464Z,21.60
2023-08-25T19:26:03.268Z,21.60
2023-08-25T19:28:30.885Z,21.60
2023-08-25T19:31:05.489Z,21.60
2023-08-25T19:33:32.798Z,21.60
2023-08-25T19:36:00.152Z,21.60
2023-08-25T19:38:27.881Z,21.60
2023-08-25T19:40:55.011Z,21.60
2023-08-25T19:43:21.907Z,21.60
2023-08-25T19:46:10.324Z,21.60
2023-08-25T19:48:42.009Z,21.60
2023-08-25T19:51:09.650Z,21.50
2023-08-25T19:53:39.285Z,21.50
2023-08-25T19:56:06.628Z,21.50
2023-08-25T19:58:33.918Z,21.50
2023-08-25T20:01:01.989Z,21.50
2023-08-25T20:03:29.455Z,21.40
2023-08-25T20:06:08.352Z,21.40
2023-08-25T20:08:38.654Z,21.30
2023-08-25T20:11:08.518Z,21.30
2023-08-25T20:13:37.567Z,21.30
2023-08-25T20:16:04.685Z,21.30
2023-08-25T20:18:32.127Z,21.30
2023-08-25T20:20:59.532Z,21.30
2023-08-25T20:23:28.416Z,21.30
2023-08-25T20:25:55.625Z,21.30
2023-08-25T20:28:23.027Z,21.30
2023-08-25T20:30:49.971Z,21.20
2023-08-25T20:33:18.165Z,21.20
2023-08-25T20:35:46.916Z,21.30
2023-08-25T20:38:15.028Z,21.20
2023-08-25T20:40:43.773Z,21.20
2023-08-25T20:43:15.670Z,21.20
2023-08-25T20:45:47.381Z,21.20
2023-08-25T20:48:14.816Z,21.30
2023-08-25T20:50:46.896Z,21.20
2023-08-25T20:53:14.191Z,21.20
2023-08-25T20:55:41.064Z,21.10
2023-08-25T20:58:08.214Z,21.10
2023-08-25T21:00:35.054Z,21.10
2023-08-25T21:03:02.024Z,21.10
2023-08-25T21:05:28.940Z,21.00
2023-08-25T21:07:56.088Z,21.00
2023-08-25T21:10:23.751Z,20.90
2023-08-25T21:12:50.578Z,20.90
2023-08-25T21:15:17.562Z,20.90
2023-08-25T21:17:44.790Z,20.90
2023-08-25T21:20:12.079Z,20.80
2023-08-25T21:22:39.082Z,20.80
2023-08-25T21:25:06.248Z,20.70
2023-08-25T21:27:33.119Z,20.60
2023-08-25T21:29:59.885Z,20.60
2023-08-25T21:32:26.755Z,20.50
2023-08-25T21:34:53.661Z,20.40
2023-08-25T21:37:20.467Z,20.30
2023-08-25T21:39:47.399Z,20.20
2023-08-25T21:42:14.149Z,20.20
2023-08-25T21:44:40.938Z,20.10
2023-08-25T21:47:07.770Z,20.10
2023-08-25T21:49:34.556Z,20.00
2023-08-25T21:52:01.478Z,20.00
2023-08-25T21:54:31.353Z,20.00
2023-08-25T21:56:58.178Z,19.90
2023-08-25T21:59:24.948Z,19.90
2023-08-25T22:01:51.754Z,19.90
2023-08-25T22:04:18.643Z,19.80
2023-08-25T22:06:46.753Z,19.80
2023-08-25T22:09:13.570Z,19.80
2023-08-25T22:11:40.338Z,19.70
2023-08-25T22:14:07.111Z,19.70
2023-08-25T22:16:35.015Z,19.60
2023-08-25T22:19:04.427Z,19.60
2023-08-25T22:21:31.657Z,19.60
2023-08-25T22:23:58.582Z,19.60
2023-08-25T22:26:25.343Z,19.60
2023-08-25T22:28:52.072Z,19.60
2023-08-25T22:31:18.988Z,19.50
2023-08-25T22:36:15.480Z,19.50
2023-08-25T22:38:42.293Z,19.60
2023-08-25T22:41:09.182Z,19.60
2023-08-25T22:43:36.177Z,19.60
2023-08-25T22:46:07.464Z,19.60
2023-08-25T22:48:34.430Z,19.50
2023-08-25T22:51:01.307Z,19.60
2023-08-25T22:53:28.535Z,19.60
2023-08-25T22:55:55.988Z,19.60
2023-08-25T22:58:23.889Z,19.70
2023-08-25T23:00:51.072Z,19.70
2023-08-25T23:03:18.133Z,19.70
2023-08-25T23:05:45.304Z,19.80
2023-08-25T23:08:12.098Z,19.80
2023-08-25T23:10:40.981Z,19.90
2023-08-25T23:13:08.826Z,19.90
2023-08-25T23:15:36.430Z,19.90
2023-08-25T23:18:05.105Z,19.90
2023-08-25T23:20:35.432Z,19.90
2023-08-25T23:23:02.225Z,19.90
2023-08-25T23:25:29.146Z,19.80
2023-08-25T23:27:56.205Z,19.80
2023-08-25T23:30:23.338Z,19.70
2023-08-25T23:32:50.278Z,19.80
2023-08-25T23:35:17.264Z,19.80
2023-08-25T23:37:44.134Z,19.70
2023-08-25T23:40:13.958Z,19.80
2023-08-25T23:42:40.886Z,19.80
2023-08-25T23:45:08.337Z,19.80
2023-08-25T23:47:35.172Z,19.80
2023-08-25T23:50:02.015Z,19.80
2023-08-25T23:52:28.895Z,19.80
2023-08-25T23:54:57.871Z,19.80
2023-08-25T23:57:25.228Z,19.80
2023-08-25T23:59:53.024Z,19.80
